Time;durP1;ratioP1;P1;durP2;ratioP2;P2;SDS_P1;SDS_P2;PMS_P1;PMS_P2;Temp;Humidity;BMP_temperature;BMP_pressure;BME280_temperature;BME280_humidity;BME280_pressure;Samples;Min_cycle;Max_cycle;Signal;HPM_P1;HPM_P2
2023/06/13 00:02:38;;;;;;;3.13;1.55;;;;;;;20.26;41.75;101407.34;6200897;28;20356;-73
2023/06/13 00:05:40;;;;;;;3.35;1.67;;;;;;;20.20;40.06;101415.84;6199434;28;20062;-73
2023/06/13 00:08:42;;;;;;;3.72;1.65;;;;;;;20.22;40.74;101410.41;6201322;28;20054;-73
2023/06/13 00:11:44;;;;;;;3.35;1.83;;;;;;;20.17;39.96;101413.47;6200459;28;20453;-73
2023/06/13 00:14:50;;;;;;;2.55;1.70;;;;;;;20.16;40.51;101414.41;6196635;28;20061;-73
2023/06/13 00:17:53;;;;;;;2.10;1.60;;;;;;;20.11;40.42;101413.09;6186444;28;20053;-73
2023/06/13 00:20:54;;;;;;;2.50;1.80;;;;;;;20.09;40.12;101407.91;6182478;28;20054;-73
2023/06/13 00:23:56;;;;;;;3.08;1.77;;;;;;;20.00;40.51;101414.00;6181756;28;20177;-73
2023/06/13 00:26:57;;;;;;;3.40;1.73;;;;;;;19.93;40.59;101412.81;6183082;28;20050;-73
2023/06/13 00:30:00;;;;;;;3.53;1.80;;;;;;;19.96;40.95;101407.22;6184070;28;20343;-73
2023/06/13 00:33:01;;;;;;;2.90;1.50;;;;;;;19.92;41.06;101409.28;6162901;28;20051;-73
2023/06/13 00:36:03;;;;;;;2.80;1.70;;;;;;;19.90;41.01;101415.75;6162639;28;20051;-73
2023/06/13 00:39:06;;;;;;;3.15;1.70;;;;;;;19.80;40.42;101407.63;6165632;28;20047;-73
2023/06/13 00:42:08;;;;;;;2.80;1.80;;;;;;;19.72;39.83;101413.59;6161350;28;20081;-73
2023/06/13 00:45:22;;;;;;;2.83;1.50;;;;;;;19.64;40.80;101405.38;6163957;28;20049;-74
2023/06/13 00:48:23;;;;;;;6.35;1.63;;;;;;;19.57;41.20;101417.44;6168906;28;20047;-73
2023/06/13 00:51:27;;;;;;;3.08;1.77;;;;;;;19.50;41.02;101414.44;6161343;28;20046;-73
2023/06/13 00:54:29;;;;;;;4.20;1.70;;;;;;;19.54;40.57;101415.06;6163054;28;20054;-72
2023/06/13 00:57:31;;;;;;;2.30;1.52;;;;;;;19.36;41.22;101412.03;6161309;28;20123;-73
2023/06/13 01:00:36;;;;;;;2.60;1.50;;;;;;;19.39;41.54;101417.09;6163146;28;20129;-73
2023/06/13 01:03:39;;;;;;;2.95;1.55;;;;;;;19.38;40.88;101414.56;6164912;28;20051;-73
2023/06/13 01:06:44;;;;;;;3.42;1.65;;;;;;;19.32;40.85;101413.25;6164771;28;20137;-73
2023/06/13 01:09:46;;;;;;;3.38;1.88;;;;;;;19.20;40.56;101416.88;6163087;28;20053;-73
2023/06/13 01:13:00;;;;;;;5.10;1.60;;;;;;;19.17;40.87;101417.16;6164389;28;20048;-73
2023/06/13 01:16:13;;;;;;;1.70;1.23;;;;;;;19.13;41.14;101413.88;6172682;28;20459;-72
2023/06/13 01:19:24;;;;;;;3.50;2.33;;;;;;;18.97;40.93;101416.03;6175471;28;20054;-73
2023/06/13 01:22:38;;;;;;;3.95;2.00;;;;;;;18.89;41.15;101421.94;6190219;28;20185;-73
2023/06/13 01:25:52;;;;;;;3.55;1.92;;;;;;;18.84;41.38;101424.13;6189633;28;20092;-73
2023/06/13 01:28:57;;;;;;;3.10;1.50;;;;;;;18.81;41.70;101415.53;6194041;28;20055;-73
2023/06/13 01:31:59;;;;;;;3.20;1.83;;;;;;;18.77;41.95;101416.75;6201918;28;20042;-73
2023/06/13 01:35:02;;;;;;;3.05;2.00;;;;;;;18.75;42.07;101417.69;6185771;28;20058;-73
2023/06/13 01:38:05;;;;;;;2.45;1.80;;;;;;;18.63;42.35;101417.78;6201847;28;20050;-73
2023/06/13 01:41:06;;;;;;;1.83;1.40;;;;;;;18.59;42.77;101406.50;6201556;28;20047;-73
2023/06/13 01:44:16;;;;;;;2.53;1.30;;;;;;;18.50;43.17;101413.38;6203968;28;20054;-73
2023/06/13 01:47:23;;;;;;;2.20;1.45;;;;;;;18.39;44.06;101413.31;6203317;28;20058;-73
2023/06/13 01:50:28;;;;;;;1.88;1.30;;;;;;;18.34;43.42;101411.97;6200293;28;20050;-73
2023/06/13 01:53:37;;;;;;;3.38;1.67;;;;;;;18.31;43.69;101409.56;6192094;28;20097;-73
2023/06/13 01:56:42;;;;;;;2.42;1.42;;;;;;;18.30;43.55;101410.50;6179413;28;20050;-73
2023/06/13 01:59:46;;;;;;;3.17;1.73;;;;;;;18.25;44.40;101410.84;6194530;28;20043;-73
2023/06/13 02:02:49;;;;;;;2.40;1.77;;;;;;;18.20;43.89;101408.53;6191116;28;20054;-73
2023/06/13 02:05:50;;;;;;;3.22;1.83;;;;;;;18.09;44.17;101415.63;6203271;28;20057;-73
2023/06/13 02:08:52;;;;;;;3.65;1.77;;;;;;;18.05;44.25;101411.50;6201431;28;20058;-72
2023/06/13 02:11:53;;;;;;;2.63;1.42;;;;;;;17.96;44.89;101413.88;6194618;28;20054;-73
2023/06/13 02:14:56;;;;;;;3.80;1.70;;;;;;;17.95;44.44;101414.84;6202951;28;20070;-73
2023/06/13 02:17:57;;;;;;;2.78;1.80;;;;;;;17.86;45.19;101414.69;6203060;28;20465;-73
2023/06/13 02:20:59;;;;;;;3.05;1.70;;;;;;;17.81;45.25;101409.69;6196924;28;20046;-73
2023/06/13 02:24:00;;;;;;;3.65;1.85;;;;;;;17.74;45.68;101417.25;6178795;28;20054;-73
2023/06/13 02:27:01;;;;;;;1.83;1.40;;;;;;;17.67;45.40;101404.50;6178455;28;20071;-73
2023/06/13 02:30:08;;;;;;;1.73;1.23;;;;;;;17.64;45.84;101405.56;6177899;28;20057;-73
2023/06/13 02:33:09;;;;;;;2.78;1.70;;;;;;;17.62;45.98;101409.28;6185106;28;20047;-73
2023/06/13 02:36:10;;;;;;;6.35;1.88;;;;;;;17.49;46.01;101404.03;6201656;28;20463;-73
2023/06/13 02:39:12;;;;;;;3.47;2.28;;;;;;;17.41;46.52;101407.22;6185580;28;20046;-73
2023/06/13 02:42:13;;;;;;;3.13;1.90;;;;;;;17.35;46.73;101409.44;6193340;28;20042;-73
2023/06/13 02:45:16;;;;;;;3.80;1.60;;;;;;;17.38;47.18;101403.94;6202497;28;20054;-73
2023/06/13 02:48:17;;;;;;;3.10;1.58;;;;;;;17.38;46.69;101403.94;6202045;28;20062;-73
2023/06/13 02:51:19;;;;;;;1.63;1.27;;;;;;;17.37;46.71;101407.56;6193685;28;20129;-73
2023/06/13 02:54:20;;;;;;;1.65;1.38;;;;;;;17.27;47.13;101410.03;6186113;28;20054;-73
2023/06/13 02:57:21;;;;;;;2.88;1.60;;;;;;;17.18;47.64;101405.34;6180822;28;20051;-73
2023/06/13 03:00:24;;;;;;;2.30;1.50;;;;;;;17.12;47.31;101406.66;6200585;28;20050;-73
2023/06/13 03:03:25;;;;;;;2.70;1.77;;;;;;;17.05;48.12;101404.50;6201985;28;20054;-73
2023/06/13 03:06:30;;;;;;;2.53;1.77;;;;;;;17.09;48.15;101400.69;6201505;28;20050;-73
2023/06/13 03:09:31;;;;;;;4.05;1.48;;;;;;;17.04;48.17;101395.69;6193762;28;20047;-72
2023/06/13 03:12:33;;;;;;;5.20;1.60;;;;;;;16.99;48.32;101401.34;6199671;28;20046;-72
2023/06/13 03:15:35;;;;;;;2.08;1.40;;;;;;;17.01;48.12;101403.03;6199828;28;20329;-72
2023/06/13 03:18:37;;;;;;;2.92;1.60;;;;;;;16.99;48.34;101400.50;6195773;28;20061;-73
2023/06/13 03:21:38;;;;;;;2.42;1.73;;;;;;;16.95;49.19;101393.69;6201000;28;20046;-73
2023/06/13 03:24:40;;;;;;;2.42;1.38;;;;;;;16.92;48.90;101391.25;6201750;28;20060;-73
2023/06/13 03:27:41;;;;;;;2.58;1.55;;;;;;;16.90;49.17;101388.69;6201198;28;20404;-73
2023/06/13 03:30:44;;;;;;;1.73;1.23;;;;;;;16.90;48.79;101387.84;6199237;28;20057;-72
2023/06/13 03:33:45;;;;;;;2.78;1.33;;;;;;;16.81;50.12;101388.50;6182302;28;20058;-73
2023/06/13 03:36:47;;;;;;;2.08;1.55;;;;;;;16.79;49.42;101390.38;6177317;28;20058;-72
2023/06/13 03:39:48;;;;;;;2.05;1.35;;;;;;;16.83;49.20;101389.22;6176864;28;20054;-73
2023/06/13 03:42:50;;;;;;;2.15;1.38;;;;;;;16.85;49.06;101395.25;6177311;28;20051;-72
2023/06/13 03:45:53;;;;;;;3.90;1.45;;;;;;;16.76;49.75;101393.25;6177387;28;20436;-72
2023/06/13 03:48:54;;;;;;;14.88;1.80;;;;;;;16.76;49.39;101398.56;6177328;28;20055;-73
2023/06/13 03:51:56;;;;;;;2.08;1.30;;;;;;;16.68;49.71;101393.75;6190620;28;20466;-73
2023/06/13 03:54:57;;;;;;;3.08;1.50;;;;;;;16.68;50.60;101393.75;6198629;28;20065;-73
2023/06/13 03:57:58;;;;;;;3.40;1.48;;;;;;;16.72;49.81;101400.59;6180827;28;20046;-73
2023/06/13 04:01:02;;;;;;;6.55;1.40;;;;;;;16.70;49.16;101402.47;6166090;28;20054;-73
2023/06/13 04:04:03;;;;;;;2.80;1.50;;;;;;;16.65;50.55;101405.41;6176768;28;20050;-72
2023/06/13 04:07:05;;;;;;;3.40;1.42;;;;;;;16.65;50.59;101401.94;6177067;28;20058;-73
2023/06/13 04:10:07;;;;;;;3.38;1.50;;;;;;;16.66;50.96;101408.91;6177525;28;20046;-72
2023/06/13 04:13:08;;;;;;;3.30;1.75;;;;;;;16.62;51.50;101404.78;6170603;28;20051;-73
2023/06/13 04:16:11;;;;;;;4.25;1.67;;;;;;;16.62;51.61;101402.13;6176880;28;20062;-73
2023/06/13 04:19:18;;;;;;;2.17;1.55;;;;;;;16.66;51.00;101406.28;6181352;28;20058;-72
2023/06/13 04:22:19;;;;;;;3.28;1.55;;;;;;;16.66;50.42;101408.91;6192510;28;20090;-75
2023/06/13 04:25:21;;;;;;;2.67;1.70;;;;;;;16.64;49.83;101411.69;6188033;28;20055;-75
2023/06/13 04:28:24;;;;;;;3.78;1.58;;;;;;;16.60;51.52;101410.19;6193367;28;20521;-75
2023/06/13 04:31:35;;;;;;;1.95;1.30;;;;;;;16.60;50.58;101404.88;6188377;28;20155;-75
2023/06/13 04:34:39;;;;;;;2.38;1.63;;;;;;;16.61;51.32;101416.34;6191806;28;20054;-74
2023/06/13 04:37:41;;;;;;;4.68;1.70;;;;;;;16.62;51.86;101410.97;6193031;28;20063;-75
2023/06/13 04:40:42;;;;;;;2.22;1.27;;;;;;;16.63;52.30;101406.50;6187718;28;20058;-75
2023/06/13 04:43:45;;;;;;;3.75;1.85;;;;;;;16.66;52.29;101407.13;6184901;28;20077;-75
2023/06/13 04:46:47;;;;;;;2.50;1.63;;;;;;;16.68;52.52;101409.69;6188455;28;20789;-75
2023/06/13 04:49:51;;;;;;;2.50;1.40;;;;;;;16.69;53.46;101408.72;6191679;28;20042;-75
2023/06/13 04:52:53;;;;;;;2.97;1.70;;;;;;;16.70;53.78;101413.91;6191244;28;20046;-75
2023/06/13 04:55:55;;;;;;;1.98;1.35;;;;;;;16.72;53.05;101414.72;6190699;28;20065;-75
2023/06/13 04:58:56;;;;;;;3.03;1.98;;;;;;;16.63;52.23;101411.81;6189705;28;20054;-75
2023/06/13 05:01:59;;;;;;;5.15;1.50;;;;;;;16.64;51.82;101408.19;6189975;28;20383;-75
2023/06/13 05:05:02;;;;;;;3.95;1.83;;;;;;;16.70;53.56;101400.66;6192423;28;20470;-75
2023/06/13 05:08:05;;;;;;;4.18;1.95;;;;;;;16.72;53.70;101411.22;6182994;28;20125;-73
2023/06/13 05:11:06;;;;;;;6.05;1.80;;;;;;;16.78;53.73;101410.78;6186245;28;20594;-73
2023/06/13 05:14:08;;;;;;;2.53;1.52;;;;;;;16.82;53.69;101412.28;6201402;28;20062;-73
2023/06/13 05:17:12;;;;;;;2.55;1.92;;;;;;;16.82;53.45;101411.44;6187161;28;20055;-72
2023/06/13 05:20:14;;;;;;;3.65;1.75;;;;;;;16.83;54.53;101410.47;6182742;28;20054;-73
2023/06/13 05:23:16;;;;;;;4.35;2.35;;;;;;;16.87;54.37;101402.19;6178628;28;20062;-73
2023/06/13 05:26:17;;;;;;;4.32;2.38;;;;;;;16.90;55.26;101401.97;6187298;28;20050;-72
2023/06/13 05:29:18;;;;;;;4.38;1.90;;;;;;;16.93;54.79;101407.06;6188115;28;20057;-72
2023/06/13 05:32:21;;;;;;;2.63;1.50;;;;;;;16.94;54.84;101399.94;6180258;28;20042;-73
2023/06/13 05:35:23;;;;;;;1.75;1.42;;;;;;;16.91;54.90;101408.97;6179361;28;20054;-72
2023/06/13 05:38:24;;;;;;;3.92;1.70;;;;;;;16.97;54.63;101403.22;6179577;28;20055;-73
2023/06/13 05:41:25;;;;;;;2.53;1.75;;;;;;;16.97;54.44;101408.53;6178935;28;20355;-73
2023/06/13 05:44:27;;;;;;;3.83;2.05;;;;;;;16.95;55.32;101399.00;6179921;28;20062;-72
2023/06/13 05:47:29;;;;;;;3.83;2.10;;;;;;;16.99;54.11;101396.03;6179011;28;20447;-73
2023/06/13 05:50:31;;;;;;;2.80;1.90;;;;;;;16.98;53.73;101399.63;6187643;28;20051;-73
2023/06/13 05:53:32;;;;;;;3.08;1.95;;;;;;;17.02;54.04;101392.28;6200179;28;20050;-73
2023/06/13 05:56:35;;;;;;;3.05;1.90;;;;;;;17.07;55.82;101398.13;6187997;28;20050;-72
2023/06/13 05:59:36;;;;;;;3.35;1.73;;;;;;;17.13;56.46;101392.41;6190958;28;20051;-72
2023/06/13 06:02:39;;;;;;;5.90;2.03;;;;;;;17.13;56.18;101395.06;6195344;28;20053;-73
2023/06/13 06:05:40;;;;;;;4.55;2.05;;;;;;;17.20;56.47;101393.66;6197606;28;20050;-73
2023/06/13 06:08:41;;;;;;;4.18;2.05;;;;;;;17.28;56.66;101398.44;6202201;28;20054;-73
2023/06/13 06:11:43;;;;;;;4.63;2.42;;;;;;;17.32;58.50;101397.25;6201757;28;20058;-73
2023/06/13 06:14:44;;;;;;;4.10;2.08;;;;;;;17.38;56.61;101398.63;6202657;28;20054;-73
2023/06/13 06:17:47;;;;;;;3.65;1.55;;;;;;;17.38;55.63;101393.31;6203025;28;20439;-73
2023/06/13 06:20:48;;;;;;;7.85;2.03;;;;;;;17.51;57.52;101391.47;6202532;28;20050;-73
2023/06/13 06:23:50;;;;;;;3.20;1.65;;;;;;;17.57;58.61;101395.47;6201070;28;20046;-73
2023/06/13 06:26:51;;;;;;;2.42;1.52;;;;;;;17.61;58.26;101388.97;6200401;28;20363;-73
2023/06/13 06:29:52;;;;;;;2.65;1.67;;;;;;;17.67;58.86;101388.56;6198903;28;20054;-73
2023/06/13 06:32:55;;;;;;;4.20;1.83;;;;;;;17.67;56.18;101385.91;6202184;28;20083;-73
2023/06/13 06:35:56;;;;;;;3.35;1.80;;;;;;;17.65;58.15;101387.81;6194447;28;20060;-73
2023/06/13 06:38:58;;;;;;;3.65;1.95;;;;;;;17.70;56.73;101390.97;6201878;28;20061;-73
2023/06/13 06:41:59;;;;;;;2.85;1.80;;;;;;;17.78;57.05;101391.28;6193723;28;20096;-73
2023/06/13 06:45:01;;;;;;;2.60;1.70;;;;;;;17.87;58.32;101392.44;6202578;28;20054;-73
2023/06/13 06:48:04;;;;;;;7.40;1.77;;;;;;;17.91;57.99;101401.88;6202021;28;20058;-73
2023/06/13 06:51:05;;;;;;;2.10;1.33;;;;;;;17.97;57.19;101390.78;6201309;28;20058;-72
2023/06/13 06:54:06;;;;;;;2.67;1.83;;;;;;;18.00;56.62;101398.53;6191696;28;20042;-72
2023/06/13 06:57:08;;;;;;;3.97;1.92;;;;;;;18.10;56.27;101393.38;6191981;28;20046;-73
2023/06/13 07:00:14;;;;;;;2.70;1.90;;;;;;;18.19;54.81;101390.03;6186873;28;20050;-73
2023/06/13 07:03:17;;;;;;;7.90;1.95;;;;;;;18.23;55.74;101387.03;6197634;28;20142;-73
2023/06/13 07:06:19;;;;;;;5.68;1.83;;;;;;;18.30;57.48;101387.41;6192637;28;20054;-73
2023/06/13 07:09:20;;;;;;;8.20;2.00;;;;;;;18.31;56.50;101383.81;6196585;28;20165;-74
2023/06/13 07:12:21;;;;;;;3.78;2.45;;;;;;;18.36;56.94;101394.94;6185645;28;22233;-73
2023/06/13 07:15:23;;;;;;;6.30;2.40;;;;;;;18.47;55.19;101391.44;6194208;28;20057;-75
2023/06/13 07:18:26;;;;;;;4.53;2.67;;;;;;;18.50;55.04;101384.09;6194366;28;20329;-73
2023/06/13 07:21:27;;;;;;;3.92;2.08;;;;;;;18.58;55.09;101388.84;6192029;28;20454;-73
2023/06/13 07:24:28;;;;;;;3.53;1.98;;;;;;;18.65;55.63;101389.19;6178049;28;20066;-73
2023/06/13 07:27:30;;;;;;;3.90;2.25;;;;;;;18.67;55.30;101382.81;6191257;28;20050;-74
2023/06/13 07:30:32;;;;;;;4.53;2.60;;;;;;;18.75;53.67;101384.88;6184889;28;20054;-73
2023/06/13 07:33:35;;;;;;;4.07;2.47;;;;;;;18.81;53.44;101394.22;6177348;28;20058;-73
2023/06/13 07:36:37;;;;;;;3.85;2.30;;;;;;;18.86;54.27;101389.41;6194765;28;20058;-72
2023/06/13 07:39:39;;;;;;;10.82;2.60;;;;;;;18.93;53.14;101388.78;6183027;28;20050;-72
2023/06/13 07:42:40;;;;;;;13.93;3.10;;;;;;;18.99;53.85;101393.63;6191553;28;20120;-73
2023/06/13 07:45:41;;;;;;;4.68;2.80;;;;;;;19.04;53.23;101387.94;6195838;28;20441;-72
2023/06/13 07:48:45;;;;;;;6.25;2.60;;;;;;;19.11;52.52;101382.97;6197872;28;20077;-73
2023/06/13 07:51:46;;;;;;;5.95;2.90;;;;;;;19.15;54.50;101385.28;6187301;28;20056;-73
2023/06/13 07:54:48;;;;;;;9.02;2.67;;;;;;;19.15;54.78;101384.44;6209170;28;20359;-73
2023/06/13 07:57:50;;;;;;;4.35;2.90;;;;;;;19.18;53.38;101382.38;6209148;28;20374;-73
2023/06/13 08:00:51;;;;;;;6.23;2.93;;;;;;;19.23;54.79;101387.34;6194740;28;20089;-74
2023/06/13 08:03:54;;;;;;;8.07;3.15;;;;;;;19.28;54.47;101387.81;6208723;28;20138;-73
2023/06/13 08:06:55;;;;;;;5.85;3.10;;;;;;;19.33;55.52;101382.13;6209092;28;20069;-73
2023/06/13 08:09:56;;;;;;;5.53;3.03;;;;;;;19.42;53.32;101387.56;6195510;28;20082;-73
2023/06/13 08:12:59;;;;;;;7.95;3.95;;;;;;;19.44;52.62;101382.09;6201648;28;20050;-73
2023/06/13 08:16:02;;;;;;;5.32;3.00;;;;;;;19.51;52.29;101378.81;6208313;28;20350;-74
2023/06/13 08:19:05;;;;;;;6.70;3.08;;;;;;;19.61;51.76;101384.28;6197380;28;20051;-74
2023/06/13 08:22:06;;;;;;;5.03;3.05;;;;;;;19.74;50.70;101381.47;6205577;28;20133;-75
2023/06/13 08:25:08;;;;;;;4.70;2.78;;;;;;;19.81;51.73;101389.81;6194794;28;20439;-74
2023/06/13 08:28:11;;;;;;;6.45;3.38;;;;;;;19.86;51.24;101382.28;6205864;28;20051;-73
2023/06/13 08:31:13;;;;;;;4.15;2.25;;;;;;;19.92;50.02;101377.28;6199009;28;20328;-74
2023/06/13 08:34:16;;;;;;;5.05;2.58;;;;;;;20.08;49.74;101378.69;6192622;28;20095;-73
2023/06/13 08:37:17;;;;;;;4.85;2.65;;;;;;;20.23;49.52;101374.72;6200861;28;20061;-74
2023/06/13 08:40:19;;;;;;;5.63;2.33;;;;;;;20.32;48.78;101381.13;6208301;28;20137;-74
2023/06/13 08:43:21;;;;;;;8.75;2.47;;;;;;;20.37;49.50;101379.75;6208547;28;20057;-74
2023/06/13 08:46:24;;;;;;;6.85;2.47;;;;;;;20.46;47.76;101386.13;6208778;28;20046;-74
2023/06/13 08:49:27;;;;;;;18.23;8.57;;;;;;;20.48;48.47;101376.19;6208447;28;20060;-74
2023/06/13 08:52:34;;;;;;;3.55;2.08;;;;;;;20.62;48.30;101380.34;6207878;28;20377;-73
2023/06/13 08:55:41;;;;;;;5.82;2.60;;;;;;;20.62;48.44;101369.66;6208289;28;20046;-74
2023/06/13 08:58:46;;;;;;;4.57;2.92;;;;;;;20.60;49.42;101361.78;6204885;28;20180;-74
2023/06/13 09:01:49;;;;;;;5.78;2.60;;;;;;;20.65;49.42;101372.91;6201758;28;20429;-73
2023/06/13 09:04:52;;;;;;;3.30;2.20;;;;;;;20.79;47.94;101361.03;6204349;28;20073;-74
2023/06/13 09:07:55;;;;;;;3.20;1.98;;;;;;;20.82;48.59;101354.59;6203979;28;20133;-74
2023/06/13 09:10:57;;;;;;;4.20;2.45;;;;;;;20.99;47.99;101351.31;6202850;28;20332;-74
2023/06/13 09:13:59;;;;;;;7.03;2.33;;;;;;;21.16;47.49;101355.16;6180209;28;20464;-74
2023/06/13 09:17:02;;;;;;;4.32;1.92;;;;;;;21.33;47.28;101354.53;6180384;28;20133;-73
2023/06/13 09:20:07;;;;;;;7.13;1.80;;;;;;;21.23;47.63;101354.47;6185061;28;20069;-74
2023/06/13 09:23:14;;;;;;;4.93;2.50;;;;;;;21.16;49.13;101350.66;6204014;28;20578;-73
2023/06/13 09:26:17;;;;;;;5.30;2.47;;;;;;;21.17;49.81;101347.00;6198614;28;20051;-73
2023/06/13 09:29:18;;;;;;;3.70;2.03;;;;;;;21.28;49.00;101349.56;6179817;28;20057;-74
2023/06/13 09:32:20;;;;;;;6.97;1.85;;;;;;;21.35;48.67;101344.56;6180153;28;20066;-73
2023/06/13 09:35:23;;;;;;;3.33;1.83;;;;;;;21.45;48.05;101337.41;6179817;28;20126;-73
2023/06/13 09:38:25;;;;;;;5.15;2.78;;;;;;;21.51;47.60;101344.88;6188428;28;20054;-74
2023/06/13 09:41:30;;;;;;;6.57;2.20;;;;;;;21.57;47.87;101337.25;6202033;28;20407;-74
2023/06/13 09:44:32;;;;;;;3.65;1.92;;;;;;;21.71;46.20;101334.19;6179841;28;20058;-74
2023/06/13 09:47:35;;;;;;;3.65;2.35;;;;;;;21.72;46.31;101334.06;6180748;28;20181;-74
2023/06/13 09:50:40;;;;;;;4.00;2.20;;;;;;;21.84;45.06;101336.59;6202263;28;20054;-74
2023/06/13 09:53:45;;;;;;;5.72;2.08;;;;;;;21.86;44.42;101335.47;6201918;28;20050;-74
2023/06/13 09:56:46;;;;;;;4.18;2.03;;;;;;;21.92;45.42;101329.53;6203773;28;20104;-73
2023/06/13 09:59:48;;;;;;;9.50;2.55;;;;;;;22.10;44.66;101328.84;6202733;28;20053;-74
2023/06/13 10:02:50;;;;;;;4.55;2.15;;;;;;;22.20;44.17;101316.31;6191554;28;20046;-74
2023/06/13 10:05:53;;;;;;;6.05;2.42;;;;;;;22.22;44.95;101319.72;6190547;28;20050;-73
2023/06/13 10:08:55;;;;;;;2.85;1.88;;;;;;;22.24;44.62;101320.41;6190242;28;20058;-73
2023/06/13 10:12:00;;;;;;;4.03;2.17;;;;;;;22.19;43.02;101322.66;6187222;28;20046;-73
2023/06/13 10:15:02;;;;;;;8.45;2.47;;;;;;;22.11;43.35;101317.97;6202954;28;20057;-74
2023/06/13 10:18:11;;;;;;;7.50;2.20;;;;;;;22.13;42.89;101313.38;6201212;28;20054;-74
2023/06/13 10:21:14;;;;;;;4.95;2.30;;;;;;;22.25;42.38;101311.38;6190055;28;20129;-74
2023/06/13 10:24:16;;;;;;;4.90;2.72;;;;;;;22.31;42.39;101304.63;6194469;28;20448;-73
2023/06/13 10:27:21;;;;;;;3.38;2.30;;;;;;;22.37;42.28;101307.53;6192112;28;20051;-74
2023/06/13 10:30:44;;;;;;;3.05;2.03;;;;;;;22.57;40.22;101310.16;6192678;28;20047;-74
2023/06/13 10:34:14;;;;;;;5.80;2.30;;;;;;;22.53;39.53;101307.78;6177972;28;20049;-74
2023/06/13 10:37:53;;;;;;;2.70;1.98;;;;;;;22.51;39.02;101295.53;6178301;28;20396;-74
2023/06/13 10:41:17;;;;;;;3.72;2.63;;;;;;;22.62;35.69;101291.81;6198214;28;20439;-74
2023/06/13 10:44:24;;;;;;;4.15;2.60;;;;;;;22.85;38.15;101295.81;6202400;28;20056;-72
2023/06/13 10:47:29;;;;;;;4.13;2.80;;;;;;;23.02;34.63;101291.50;6200719;28;20058;-73
2023/06/13 10:50:37;;;;;;;4.35;2.30;;;;;;;23.12;37.01;101286.97;6201307;28;20451;-73
2023/06/13 10:53:39;;;;;;;4.63;2.85;;;;;;;23.19;38.58;101279.16;6202335;28;20051;-74
2023/06/13 10:56:43;;;;;;;3.20;2.30;;;;;;;23.18;37.64;101272.09;6201964;28;20058;-74
2023/06/13 10:59:48;;;;;;;6.13;2.47;;;;;;;23.38;37.88;101270.97;6201721;28;20057;-74
2023/06/13 11:02:51;;;;;;;4.78;2.20;;;;;;;23.43;36.97;101265.16;6192970;28;20046;-74
2023/06/13 11:05:52;;;;;;;6.80;2.38;;;;;;;23.54;36.89;101268.44;6192348;28;20078;-73
2023/06/13 11:09:21;;;;;;;4.20;2.08;;;;;;;23.71;36.09;101266.81;6191968;28;20054;-74
2023/06/13 11:12:24;;;;;;;6.13;3.30;;;;;;;23.73;35.51;101259.41;6188494;28;20070;-75
2023/06/13 11:15:27;;;;;;;4.97;2.70;;;;;;;23.74;34.93;101255.72;6188107;28;20046;-74
2023/06/13 11:18:34;;;;;;;4.72;2.22;;;;;;;23.82;34.86;101248.75;6201334;28;20053;-74
2023/06/13 11:21:43;;;;;;;5.18;1.98;;;;;;;23.86;37.05;101250.97;6199401;28;20046;-74
2023/06/13 11:24:45;;;;;;;3.10;2.30;;;;;;;24.01;34.77;101252.09;6182348;28;20042;-74
2023/06/13 11:27:47;;;;;;;3.70;2.45;;;;;;;24.17;34.13;101240.63;6177098;28;20054;-74
2023/06/13 11:30:49;;;;;;;5.50;2.47;;;;;;;24.32;34.00;101231.97;6176805;28;20061;-75
2023/06/13 11:33:52;;;;;;;3.28;2.33;;;;;;;24.63;32.57;101235.84;6179509;28;20054;-73
2023/06/13 11:37:05;;;;;;;2.15;1.77;;;;;;;24.74;32.58;101227.50;6177124;28;20305;-73
2023/06/13 11:40:12;;;;;;;3.83;2.15;;;;;;;24.83;32.90;101225.66;6175878;28;20458;-74
2023/06/13 11:43:14;;;;;;;4.60;2.33;;;;;;;24.99;32.89;101232.97;6177150;28;20058;-74
2023/06/13 11:46:15;;;;;;;4.30;2.03;;;;;;;25.12;31.44;101237.88;6200421;28;20054;-73
2023/06/13 11:49:17;;;;;;;3.78;2.47;;;;;;;25.47;31.92;101226.84;6201426;28;20046;-73
2023/06/13 11:52:18;;;;;;;4.05;2.50;;;;;;;25.49;30.26;101229.38;6200150;28;20050;-72
2023/06/13 11:55:21;;;;;;;3.72;2.15;;;;;;;25.64;29.93;101232.22;6200943;28;20046;-74
2023/06/13 11:58:30;;;;;;;2.10;1.67;;;;;;;25.78;33.01;101235.13;6200826;28;20047;-74
2023/06/13 12:01:31;;;;;;;2.60;2.08;;;;;;;25.94;30.80;101226.19;6192634;28;20324;-75
2023/06/13 12:04:33;;;;;;;4.95;2.00;;;;;;;26.21;29.62;101221.44;6187843;28;20053;-74
2023/06/13 12:07:35;;;;;;;2.90;1.75;;;;;;;26.29;29.65;101229.47;6177497;28;20062;-74
2023/06/13 12:10:37;;;;;;;2.38;1.90;;;;;;;26.29;30.70;101227.59;6183416;28;20506;-74
2023/06/13 12:13:39;;;;;;;3.47;1.85;;;;;;;26.51;31.26;101222.53;6191047;28;20053;-74
2023/06/13 12:16:41;;;;;;;2.58;1.95;;;;;;;26.50;29.95;101220.84;6195749;28;20101;-75
2023/06/13 12:19:42;;;;;;;4.97;2.40;;;;;;;26.48;28.91;101207.56;6191707;28;21532;-74
2023/06/13 12:22:44;;;;;;;3.55;2.05;;;;;;;26.50;29.62;101212.75;6194097;28;20454;-74
2023/06/13 12:25:47;;;;;;;4.07;1.90;;;;;;;26.62;29.85;101207.84;6190623;28;20057;-74
2023/06/13 12:28:49;;;;;;;3.25;2.20;;;;;;;26.68;28.37;101196.34;6199430;28;20054;-75
2023/06/13 12:31:58;;;;;;;4.28;2.20;;;;;;;26.78;30.22;101184.31;6196972;28;20137;-74
2023/06/13 12:35:02;;;;;;;3.63;2.35;;;;;;;26.95;28.99;101187.75;6179852;28;20055;-72
2023/06/13 12:38:04;;;;;;;3.35;1.90;;;;;;;27.14;29.78;101181.09;6202489;28;20051;-72
2023/06/13 12:41:14;;;;;;;3.00;2.15;;;;;;;27.23;29.31;101179.16;6204569;28;20435;-73
2023/06/13 12:44:17;;;;;;;3.65;2.30;;;;;;;27.41;27.73;101181.56;6205172;28;20046;-72
2023/06/13 12:47:20;;;;;;;2.95;2.28;;;;;;;27.52;26.90;101181.94;6205014;28;20142;-73
2023/06/13 12:50:23;;;;;;;1.88;1.48;;;;;;;27.38;27.66;101177.34;6196442;28;20057;-72
2023/06/13 12:53:25;;;;;;;3.83;1.88;;;;;;;27.59;26.58;101173.97;6184826;28;20049;-72
2023/06/13 12:56:28;;;;;;;3.60;2.03;;;;;;;27.62;28.50;101167.38;6193186;28;20472;-73
2023/06/13 12:59:31;;;;;;;3.45;1.90;;;;;;;27.69;28.06;101171.00;6196575;28;20165;-73
2023/06/13 13:02:33;;;;;;;4.53;2.30;;;;;;;27.50;26.56;101169.66;6202045;28;20403;-73
2023/06/13 13:05:34;;;;;;;5.07;3.15;;;;;;;27.37;27.08;101164.88;6203962;28;20050;-72
2023/06/13 13:08:35;;;;;;;2.30;2.10;;;;;;;27.34;27.30;101150.91;6203584;28;20050;-73
2023/06/13 13:11:39;;;;;;;3.13;2.08;;;;;;;27.42;27.16;101154.38;6203147;28;20054;-73
2023/06/13 13:14:40;;;;;;;2.72;1.90;;;;;;;27.66;26.82;101156.03;6202227;28;20042;-72
2023/06/13 13:17:41;;;;;;;3.15;2.38;;;;;;;27.77;26.45;101143.97;6180202;28;20058;-73
2023/06/13 13:20:43;;;;;;;3.13;2.13;;;;;;;27.83;26.81;101153.19;6182987;28;20050;-72
2023/06/13 13:23:44;;;;;;;4.78;1.95;;;;;;;28.12;26.64;101141.56;6196836;28;20058;-73
2023/06/13 13:26:51;;;;;;;3.53;2.13;;;;;;;28.24;26.18;101142.75;6193428;28;20073;-73
2023/06/13 13:29:55;;;;;;;2.35;2.08;;;;;;;28.19;26.65;101135.19;6200176;28;20061;-73
2023/06/13 13:32:56;;;;;;;3.72;2.00;;;;;;;28.20;28.00;101133.31;6197069;28;20051;-73
2023/06/13 13:35:57;;;;;;;3.75;1.77;;;;;;;28.33;26.56;101150.56;6196442;28;20053;-73
2023/06/13 13:39:00;;;;;;;2.33;2.08;;;;;;;28.17;25.41;101137.25;6198805;28;20043;-73
2023/06/13 13:42:04;;;;;;;3.22;1.90;;;;;;;28.13;26.25;101146.75;6194590;28;20354;-73
2023/06/13 13:45:07;;;;;;;3.45;2.42;;;;;;;28.18;26.51;101140.78;6203334;28;20057;-73
2023/06/13 13:48:10;;;;;;;3.00;1.83;;;;;;;28.32;26.69;101131.81;6203975;28;20050;-73
2023/06/13 13:51:12;;;;;;;4.38;2.20;;;;;;;28.46;26.25;101133.69;6202578;28;20141;-73
2023/06/13 13:54:13;;;;;;;3.42;2.30;;;;;;;28.46;26.61;101127.44;6203770;28;20125;-74
2023/06/13 13:57:16;;;;;;;2.65;1.98;;;;;;;28.61;24.86;101133.66;6196183;28;20050;-73
2023/06/13 14:00:18;;;;;;;3.35;2.03;;;;;;;28.39;24.81;101124.69;6202509;28;20046;-74
2023/06/13 14:03:20;;;;;;;3.80;2.17;;;;;;;28.53;25.74;101125.69;6201674;28;20043;-73
2023/06/13 14:06:21;;;;;;;3.65;2.40;;;;;;;28.59;24.77;101124.91;6195259;28;20478;-73
2023/06/13 14:09:22;;;;;;;6.82;2.00;;;;;;;28.62;26.00;101119.13;6195186;28;20058;-74
2023/06/13 14:12:26;;;;;;;4.13;1.45;;;;;;;28.54;24.36;101119.22;6202157;28;20068;-74